sensor_id;sensor_type;location;lat;lon;timestamp;P1;durP1;ratioP1;P2;durP2;ratioP2
56455;SDS011;42354;53.218;6.564;2023-07-29T00:00:44;13.25;;;7.68;;
56455;SDS011;42354;53.218;6.564;2023-07-29T00:03:09;13.70;;;8.55;;
56455;SDS011;42354;53.218;6.564;2023-07-29T00:05:38;12.38;;;7.80;;
56455;SDS011;42354;53.218;6.564;2023-07-29T00:08:05;12.27;;;7.82;;
56455;SDS011;42354;53.218;6.564;2023-07-29T00:10:31;12.15;;;8.07;;
56455;SDS011;42354;53.218;6.564;2023-07-29T00:12:57;11.32;;;7.60;;
56455;SDS011;42354;53.218;6.564;2023-07-29T00:15:23;11.77;;;7.68;;
56455;SDS011;42354;53.218;6.564;2023-07-29T00:17:49;12.82;;;8.25;;
56455;SDS011;42354;53.218;6.564;2023-07-29T00:20:14;17.85;;;8.82;;
56455;SDS011;42354;53.218;6.564;2023-07-29T00:22:40;13.38;;;8.00;;
56455;SDS011;42354;53.218;6.564;2023-07-29T00:25:05;13.73;;;8.48;;
56455;SDS011;42354;53.218;6.564;2023-07-29T00:27:31;13.98;;;8.95;;
56455;SDS011;42354;53.218;6.564;2023-07-29T00:29:57;14.60;;;9.25;;
56455;SDS011;42354;53.218;6.564;2023-07-29T00:32:22;12.38;;;8.18;;
56455;SDS011;42354;53.218;6.564;2023-07-29T00:34:48;12.55;;;8.05;;
56455;SDS011;42354;53.218;6.564;2023-07-29T00:37:13;12.82;;;8.43;;
56455;SDS011;42354;53.218;6.564;2023-07-29T00:39:38;14.63;;;8.27;;
56455;SDS011;42354;53.218;6.564;2023-07-29T00:42:04;13.00;;;8.73;;
56455;SDS011;42354;53.218;6.564;2023-07-29T00:44:30;16.60;;;9.35;;
56455;SDS011;42354;53.218;6.564;2023-07-29T00:46:56;11.18;;;8.80;;
56455;SDS011;42354;53.218;6.564;2023-07-29T00:49:23;14.55;;;9.25;;
56455;SDS011;42354;53.218;6.564;2023-07-29T00:51:49;12.55;;;8.93;;
56455;SDS011;42354;53.218;6.564;2023-07-29T00:54:15;13.13;;;8.85;;
56455;SDS011;42354;53.218;6.564;2023-07-29T00:56:40;14.82;;;9.35;;
56455;SDS011;42354;53.218;6.564;2023-07-29T00:59:06;14.18;;;9.18;;
56455;SDS011;42354;53.218;6.564;2023-07-29T01:01:32;14.25;;;8.88;;
56455;SDS011;42354;53.218;6.564;2023-07-29T01:03:58;13.60;;;9.15;;
56455;SDS011;42354;53.218;6.564;2023-07-29T01:06:29;16.67;;;8.85;;
56455;SDS011;42354;53.218;6.564;2023-07-29T01:09:13;12.90;;;9.18;;
56455;SDS011;42354;53.218;6.564;2023-07-29T01:11:52;13.27;;;9.20;;
56455;SDS011;42354;53.218;6.564;2023-07-29T01:17:03;12.48;;;9.40;;
56455;SDS011;42354;53.218;6.564;2023-07-29T01:22:31;19.23;;;9.02;;
56455;SDS011;42354;53.218;6.564;2023-07-29T01:24:58;13.85;;;9.50;;
56455;SDS011;42354;53.218;6.564;2023-07-29T01:27:24;13.38;;;8.77;;
56455;SDS011;42354;53.218;6.564;2023-07-29T01:29:50;14.40;;;9.35;;
56455;SDS011;42354;53.218;6.564;2023-07-29T01:37:37;18.25;;;10.30;;
56455;SDS011;42354;53.218;6.564;2023-07-29T01:40:05;18.30;;;9.98;;
56455;SDS011;42354;53.218;6.564;2023-07-29T01:42:33;16.00;;;10.00;;
56455;SDS011;42354;53.218;6.564;2023-07-29T01:44:59;16.15;;;9.98;;
56455;SDS011;42354;53.218;6.564;2023-07-29T01:47:25;14.55;;;10.02;;
56455;SDS011;42354;53.218;6.564;2023-07-29T01:49:50;13.60;;;9.85;;
56455;SDS011;42354;53.218;6.564;2023-07-29T01:52:16;14.38;;;9.88;;
56455;SDS011;42354;53.218;6.564;2023-07-29T01:54:42;15.55;;;9.98;;
56455;SDS011;42354;53.218;6.564;2023-07-29T01:57:07;16.38;;;10.05;;
56455;SDS011;42354;53.218;6.564;2023-07-29T01:59:34;15.07;;;9.73;;
56455;SDS011;42354;53.218;6.564;2023-07-29T02:01:59;17.08;;;9.70;;
56455;SDS011;42354;53.218;6.564;2023-07-29T02:04:25;17.98;;;10.85;;
56455;SDS011;42354;53.218;6.564;2023-07-29T02:06:50;14.00;;;10.32;;
56455;SDS011;42354;53.218;6.564;2023-07-29T02:09:15;15.90;;;10.88;;
56455;SDS011;42354;53.218;6.564;2023-07-29T02:11:41;16.42;;;10.73;;
56455;SDS011;42354;53.218;6.564;2023-07-29T02:14:06;16.70;;;10.30;;
56455;SDS011;42354;53.218;6.564;2023-07-29T02:16:31;19.10;;;10.80;;
56455;SDS011;42354;53.218;6.564;2023-07-29T02:18:59;16.55;;;10.63;;
56455;SDS011;42354;53.218;6.564;2023-07-29T02:21:25;19.27;;;11.02;;
56455;SDS011;42354;53.218;6.564;2023-07-29T02:23:50;16.38;;;10.82;;
56455;SDS011;42354;53.218;6.564;2023-07-29T02:26:16;16.27;;;10.95;;
56455;SDS011;42354;53.218;6.564;2023-07-29T02:28:42;18.83;;;11.18;;
56455;SDS011;42354;53.218;6.564;2023-07-29T02:31:14;15.45;;;9.82;;
56455;SDS011;42354;53.218;6.564;2023-07-29T02:33:44;17.23;;;10.65;;
56455;SDS011;42354;53.218;6.564;2023-07-29T02:36:10;19.70;;;10.93;;
56455;SDS011;42354;53.218;6.564;2023-07-29T02:38:37;20.65;;;11.57;;
56455;SDS011;42354;53.218;6.564;2023-07-29T02:41:02;18.67;;;11.15;;
56455;SDS011;42354;53.218;6.564;2023-07-29T02:43:28;20.50;;;10.85;;
56455;SDS011;42354;53.218;6.564;2023-07-29T02:45:53;16.65;;;10.77;;
56455;SDS011;42354;53.218;6.564;2023-07-29T02:48:18;16.77;;;10.80;;
56455;SDS011;42354;53.218;6.564;2023-07-29T02:50:44;17.27;;;10.75;;
56455;SDS011;42354;53.218;6.564;2023-07-29T02:53:09;18.67;;;10.30;;
56455;SDS011;42354;53.218;6.564;2023-07-29T02:55:35;17.38;;;10.95;;
56455;SDS011;42354;53.218;6.564;2023-07-29T02:58:00;18.73;;;10.88;;
56455;SDS011;42354;53.218;6.564;2023-07-29T03:00:25;18.35;;;11.25;;
56455;SDS011;42354;53.218;6.564;2023-07-29T03:02:51;18.67;;;11.75;;
56455;SDS011;42354;53.218;6.564;2023-07-29T03:05:16;20.17;;;11.10;;
56455;SDS011;42354;53.218;6.564;2023-07-29T03:07:42;20.92;;;12.20;;
56455;SDS011;42354;53.218;6.564;2023-07-29T03:10:07;15.60;;;10.95;;
56455;SDS011;42354;53.218;6.564;2023-07-29T03:12:33;20.40;;;11.38;;
56455;SDS011;42354;53.218;6.564;2023-07-29T03:14:59;21.90;;;10.95;;
56455;SDS011;42354;53.218;6.564;2023-07-29T03:17:25;18.42;;;10.65;;
56455;SDS011;42354;53.218;6.564;2023-07-29T03:19:51;16.13;;;9.93;;
56455;SDS011;42354;53.218;6.564;2023-07-29T03:22:17;18.83;;;11.18;;
56455;SDS011;42354;53.218;6.564;2023-07-29T03:24:42;17.83;;;10.52;;
56455;SDS011;42354;53.218;6.564;2023-07-29T03:27:08;21.15;;;10.73;;
56455;SDS011;42354;53.218;6.564;2023-07-29T03:29:35;19.77;;;11.10;;
56455;SDS011;42354;53.218;6.564;2023-07-29T03:32:00;19.10;;;10.75;;
56455;SDS011;42354;53.218;6.564;2023-07-29T03:34:26;16.25;;;10.15;;
56455;SDS011;42354;53.218;6.564;2023-07-29T03:36:51;18.05;;;10.98;;
56455;SDS011;42354;53.218;6.564;2023-07-29T03:39:17;16.63;;;9.80;;
56455;SDS011;42354;53.218;6.564;2023-07-29T03:41:42;17.25;;;10.25;;
56455;SDS011;42354;53.218;6.564;2023-07-29T03:44:07;20.90;;;9.98;;
56455;SDS011;42354;53.218;6.564;2023-07-29T03:46:33;15.07;;;9.40;;
56455;SDS011;42354;53.218;6.564;2023-07-29T03:48:58;21.10;;;10.38;;
56455;SDS011;42354;53.218;6.564;2023-07-29T03:51:24;20.25;;;10.38;;
56455;SDS011;42354;53.218;6.564;2023-07-29T03:53:49;16.00;;;10.02;;
56455;SDS011;42354;53.218;6.564;2023-07-29T03:56:15;21.42;;;10.27;;
56455;SDS011;42354;53.218;6.564;2023-07-29T03:58:41;15.27;;;9.18;;
56455;SDS011;42354;53.218;6.564;2023-07-29T04:01:06;18.35;;;10.32;;
56455;SDS011;42354;53.218;6.564;2023-07-29T04:03:33;15.13;;;9.50;;
56455;SDS011;42354;53.218;6.564;2023-07-29T04:05:59;17.65;;;9.85;;
56455;SDS011;42354;53.218;6.564;2023-07-29T04:08:25;19.38;;;9.07;;
56455;SDS011;42354;53.218;6.564;2023-07-29T04:10:50;17.40;;;9.40;;
56455;SDS011;42354;53.218;6.564;2023-07-29T04:13:16;15.60;;;9.85;;
56455;SDS011;42354;53.218;6.564;2023-07-29T04:15:41;17.25;;;9.30;;
56455;SDS011;42354;53.218;6.564;2023-07-29T04:18:07;18.42;;;9.60;;
56455;SDS011;42354;53.218;6.564;2023-07-29T04:20:32;16.42;;;8.82;;
56455;SDS011;42354;53.218;6.564;2023-07-29T04:22:58;14.45;;;8.93;;
56455;SDS011;42354;53.218;6.564;2023-07-29T04:25:24;13.93;;;8.73;;
56455;SDS011;42354;53.218;6.564;2023-07-29T04:27:49;17.20;;;8.50;;
56455;SDS011;42354;53.218;6.564;2023-07-29T04:30:15;16.45;;;8.88;;
56455;SDS011;42354;53.218;6.564;2023-07-29T04:32:40;17.00;;;7.80;;
56455;SDS011;42354;53.218;6.564;2023-07-29T04:35:07;17.63;;;8.00;;
56455;SDS011;42354;53.218;6.564;2023-07-29T04:37:33;14.70;;;7.20;;
56455;SDS011;42354;53.218;6.564;2023-07-29T04:39:58;12.15;;;7.38;;
56455;SDS011;42354;53.218;6.564;2023-07-29T04:42:24;17.75;;;8.00;;
56455;SDS011;42354;53.218;6.564;2023-07-29T04:44:49;12.77;;;7.10;;
56455;SDS011;42354;53.218;6.564;2023-07-29T04:47:14;14.52;;;7.25;;
56455;SDS011;42354;53.218;6.564;2023-07-29T04:49:40;10.00;;;6.63;;
56455;SDS011;42354;53.218;6.564;2023-07-29T04:52:05;12.15;;;6.40;;
56455;SDS011;42354;53.218;6.564;2023-07-29T04:54:31;12.93;;;5.70;;
56455;SDS011;42354;53.218;6.564;2023-07-29T04:56:56;10.00;;;5.70;;
56455;SDS011;42354;53.218;6.564;2023-07-29T04:59:22;12.00;;;5.50;;
56455;SDS011;42354;53.218;6.564;2023-07-29T05:01:47;9.68;;;5.85;;
56455;SDS011;42354;53.218;6.564;2023-07-29T05:04:12;11.63;;;5.32;;
56455;SDS011;42354;53.218;6.564;2023-07-29T05:06:38;10.27;;;4.78;;
56455;SDS011;42354;53.218;6.564;2023-07-29T05:09:16;11.10;;;4.90;;
56455;SDS011;42354;53.218;6.564;2023-07-29T05:11:43;12.30;;;4.13;;
56455;SDS011;42354;53.218;6.564;2023-07-29T05:14:14;8.40;;;3.67;;
56455;SDS011;42354;53.218;6.564;2023-07-29T05:16:40;12.40;;;4.45;;
56455;SDS011;42354;53.218;6.564;2023-07-29T05:19:06;9.50;;;3.65;;
56455;SDS011;42354;53.218;6.564;2023-07-29T05:21:32;6.03;;;3.70;;
56455;SDS011;42354;53.218;6.564;2023-07-29T05:23:58;9.48;;;3.65;;
56455;SDS011;42354;53.218;6.564;2023-07-29T05:26:23;5.15;;;3.55;;
56455;SDS011;42354;53.218;6.564;2023-07-29T05:28:49;6.78;;;3.67;;
56455;SDS011;42354;53.218;6.564;2023-07-29T05:31:14;7.50;;;3.42;;
56455;SDS011;42354;53.218;6.564;2023-07-29T05:33:39;7.82;;;3.22;;
56455;SDS011;42354;53.218;6.564;2023-07-29T05:36:05;7.00;;;3.00;;
56455;SDS011;42354;53.218;6.564;2023-07-29T05:38:30;6.93;;;2.90;;
56455;SDS011;42354;53.218;6.564;2023-07-29T05:40:56;16.58;;;4.45;;
56455;SDS011;42354;53.218;6.564;2023-07-29T05:43:21;10.35;;;3.40;;
56455;SDS011;42354;53.218;6.564;2023-07-29T05:45:48;6.20;;;2.83;;
56455;SDS011;42354;53.218;6.564;2023-07-29T05:48:14;10.52;;;3.63;;
56455;SDS011;42354;53.218;6.564;2023-07-29T05:50:39;9.15;;;3.72;;
56455;SDS011;42354;53.218;6.564;2023-07-29T05:53:04;10.48;;;3.25;;
56455;SDS011;42354;53.218;6.564;2023-07-29T05:55:30;5.97;;;3.08;;
56455;SDS011;42354;53.218;6.564;2023-07-29T05:57:55;9.93;;;3.30;;
56455;SDS011;42354;53.218;6.564;2023-07-29T06:00:22;8.75;;;3.15;;
56455;SDS011;42354;53.218;6.564;2023-07-29T06:02:48;8.25;;;3.83;;
56455;SDS011;42354;53.218;6.564;2023-07-29T06:05:13;5.70;;;3.42;;
56455;SDS011;42354;53.218;6.564;2023-07-29T06:07:39;7.47;;;3.25;;
56455;SDS011;42354;53.218;6.564;2023-07-29T06:10:09;9.57;;;3.25;;
56455;SDS011;42354;53.218;6.564;2023-07-29T06:12:37;7.13;;;3.30;;
56455;SDS011;42354;53.218;6.564;2023-07-29T06:15:03;10.82;;;3.70;;
56455;SDS011;42354;53.218;6.564;2023-07-29T06:17:29;10.75;;;3.42;;
56455;SDS011;42354;53.218;6.564;2023-07-29T06:19:55;8.05;;;3.80;;
56455;SDS011;42354;53.218;6.564;2023-07-29T06:22:20;7.60;;;3.00;;
56455;SDS011;42354;53.218;6.564;2023-07-29T06:24:46;6.57;;;3.10;;
56455;SDS011;42354;53.218;6.564;2023-07-29T06:27:11;8.20;;;3.40;;
56455;SDS011;42354;53.218;6.564;2023-07-29T06:29:36;6.07;;;3.53;;
56455;SDS011;42354;53.218;6.564;2023-07-29T06:32:02;10.82;;;3.15;;
56455;SDS011;42354;53.218;6.564;2023-07-29T06:34:27;9.65;;;3.15;;
56455;SDS011;42354;53.218;6.564;2023-07-29T06:36:53;5.57;;;2.58;;
56455;SDS011;42354;53.218;6.564;2023-07-29T06:39:18;7.05;;;3.28;;
56455;SDS011;42354;53.218;6.564;2023-07-29T06:41:44;9.93;;;3.63;;
56455;SDS011;42354;53.218;6.564;2023-07-29T06:44:09;8.43;;;3.22;;
56455;SDS011;42354;53.218;6.564;2023-07-29T06:46:35;6.70;;;3.42;;
56455;SDS011;42354;53.218;6.564;2023-07-29T06:49:00;7.93;;;3.45;;
56455;SDS011;42354;53.218;6.564;2023-07-29T06:51:26;6.82;;;2.40;;
56455;SDS011;42354;53.218;6.564;2023-07-29T06:53:51;9.70;;;3.00;;
56455;SDS011;42354;53.218;6.564;2023-07-29T06:56:17;7.18;;;2.50;;
56455;SDS011;42354;53.218;6.564;2023-07-29T06:58:42;9.30;;;3.28;;
56455;SDS011;42354;53.218;6.564;2023-07-29T07:01:08;8.18;;;2.85;;
56455;SDS011;42354;53.218;6.564;2023-07-29T07:03:33;7.03;;;3.33;;
56455;SDS011;42354;53.218;6.564;2023-07-29T07:05:58;11.68;;;3.70;;
56455;SDS011;42354;53.218;6.564;2023-07-29T07:08:24;8.43;;;3.72;;
56455;SDS011;42354;53.218;6.564;2023-07-29T07:10:49;12.95;;;4.18;;
56455;SDS011;42354;53.218;6.564;2023-07-29T07:13:14;9.50;;;3.80;;
56455;SDS011;42354;53.218;6.564;2023-07-29T07:15:40;9.00;;;3.63;;
56455;SDS011;42354;53.218;6.564;2023-07-29T07:18:05;9.00;;;3.88;;
56455;SDS011;42354;53.218;6.564;2023-07-29T07:20:31;8.13;;;2.67;;
56455;SDS011;42354;53.218;6.564;2023-07-29T07:22:56;11.48;;;4.03;;
56455;SDS011;42354;53.218;6.564;2023-07-29T07:25:22;10.95;;;3.95;;
56455;SDS011;42354;53.218;6.564;2023-07-29T07:27:47;9.40;;;3.33;;
56455;SDS011;42354;53.218;6.564;2023-07-29T07:30:13;9.88;;;3.83;;
56455;SDS011;42354;53.218;6.564;2023-07-29T07:32:39;10.13;;;4.90;;
56455;SDS011;42354;53.218;6.564;2023-07-29T07:35:04;9.23;;;4.10;;
56455;SDS011;42354;53.218;6.564;2023-07-29T07:37:30;8.93;;;3.25;;
56455;SDS011;42354;53.218;6.564;2023-07-29T07:39:55;6.45;;;3.47;;
56455;SDS011;42354;53.218;6.564;2023-07-29T07:42:21;11.05;;;3.72;;
56455;SDS011;42354;53.218;6.564;2023-07-29T07:44:46;9.48;;;4.07;;
56455;SDS011;42354;53.218;6.564;2023-07-29T07:47:12;11.20;;;4.20;;
56455;SDS011;42354;53.218;6.564;2023-07-29T07:49:37;8.43;;;3.95;;
56455;SDS011;42354;53.218;6.564;2023-07-29T07:52:03;9.85;;;3.50;;
56455;SDS011;42354;53.218;6.564;2023-07-29T07:54:28;11.65;;;3.30;;
56455;SDS011;42354;53.218;6.564;2023-07-29T07:56:54;8.77;;;3.78;;
56455;SDS011;42354;53.218;6.564;2023-07-29T07:59:19;13.57;;;3.33;;
56455;SDS011;42354;53.218;6.564;2023-07-29T08:01:45;5.32;;;3.13;;
56455;SDS011;42354;53.218;6.564;2023-07-29T08:04:10;8.48;;;3.25;;
56455;SDS011;42354;53.218;6.564;2023-07-29T08:06:36;9.25;;;3.38;;
56455;SDS011;42354;53.218;6.564;2023-07-29T08:09:02;9.20;;;3.75;;
56455;SDS011;42354;53.218;6.564;2023-07-29T08:11:27;9.38;;;3.55;;
56455;SDS011;42354;53.218;6.564;2023-07-29T08:13:53;8.75;;;3.40;;
56455;SDS011;42354;53.218;6.564;2023-07-29T08:16:18;6.15;;;2.88;;
56455;SDS011;42354;53.218;6.564;2023-07-29T08:18:44;10.40;;;3.33;;
56455;SDS011;42354;53.218;6.564;2023-07-29T08:21:09;7.78;;;3.15;;
56455;SDS011;42354;53.218;6.564;2023-07-29T08:23:35;8.38;;;2.55;;
56455;SDS011;42354;53.218;6.564;2023-07-29T08:26:02;9.25;;;3.28;;
56455;SDS011;42354;53.218;6.564;2023-07-29T08:28:36;9.48;;;3.30;;
56455;SDS011;42354;53.218;6.564;2023-07-29T08:31:03;6.05;;;3.00;;
56455;SDS011;42354;53.218;6.564;2023-07-29T08:33:28;4.78;;;2.63;;
56455;SDS011;42354;53.218;6.564;2023-07-29T08:35:54;7.32;;;2.63;;
56455;SDS011;42354;53.218;6.564;2023-07-29T08:38:20;5.80;;;2.20;;
56455;SDS011;42354;53.218;6.564;2023-07-29T08:43:31;9.93;;;2.40;;
56455;SDS011;42354;53.218;6.564;2023-07-29T08:46:00;6.00;;;2.45;;
56455;SDS011;42354;53.218;6.564;2023-07-29T08:48:36;6.13;;;2.25;;
56455;SDS011;42354;53.218;6.564;2023-07-29T08:51:05;8.07;;;2.55;;
56455;SDS011;42354;53.218;6.564;2023-07-29T08:53:33;6.72;;;2.20;;
56455;SDS011;42354;53.218;6.564;2023-07-29T08:55:59;5.00;;;2.00;;
56455;SDS011;42354;53.218;6.564;2023-07-29T08:58:26;7.82;;;2.08;;
56455;SDS011;42354;53.218;6.564;2023-07-29T09:00:52;6.45;;;1.88;;
56455;SDS011;42354;53.218;6.564;2023-07-29T09:03:17;9.27;;;2.30;;
56455;SDS011;42354;53.218;6.564;2023-07-29T09:05:44;5.47;;;1.90;;
56455;SDS011;42354;53.218;6.564;2023-07-29T09:08:11;5.95;;;1.85;;
56455;SDS011;42354;53.218;6.564;2023-07-29T09:10:36;3.60;;;1.30;;
56455;SDS011;42354;53.218;6.564;2023-07-29T09:13:03;6.22;;;1.70;;
56455;SDS011;42354;53.218;6.564;2023-07-29T09:15:29;5.55;;;1.92;;
56455;SDS011;42354;53.218;6.564;2023-07-29T09:18:11;5.18;;;1.58;;
56455;SDS011;42354;53.218;6.564;2023-07-29T09:20:40;7.65;;;2.10;;
56455;SDS011;42354;53.218;6.564;2023-07-29T09:23:09;7.25;;;2.03;;
56455;SDS011;42354;53.218;6.564;2023-07-29T09:25:35;4.55;;;1.80;;
56455;SDS011;42354;53.218;6.564;2023-07-29T09:28:01;6.10;;;1.30;;
56455;SDS011;42354;53.218;6.564;2023-07-29T09:30:33;3.38;;;1.60;;
56455;SDS011;42354;53.218;6.564;2023-07-29T09:32:59;5.55;;;1.50;;
56455;SDS011;42354;53.218;6.564;2023-07-29T09:35:33;5.90;;;1.70;;
56455;SDS011;42354;53.218;6.564;2023-07-29T09:38:01;4.25;;;1.50;;
56455;SDS011;42354;53.218;6.564;2023-07-29T09:40:38;6.32;;;1.33;;
56455;SDS011;42354;53.218;6.564;2023-07-29T09:43:04;3.30;;;1.20;;
56455;SDS011;42354;53.218;6.564;2023-07-29T09:45:32;4.88;;;1.15;;
56455;SDS011;42354;53.218;6.564;2023-07-29T09:48:00;3.53;;;1.20;;
56455;SDS011;42354;53.218;6.564;2023-07-29T09:50:26;3.28;;;1.10;;
56455;SDS011;42354;53.218;6.564;2023-07-29T09:52:53;4.50;;;1.15;;
56455;SDS011;42354;53.218;6.564;2023-07-29T09:55:21;3.80;;;1.25;;
56455;SDS011;42354;53.218;6.564;2023-07-29T09:57:48;4.65;;;1.35;;
56455;SDS011;42354;53.218;6.564;2023-07-29T10:00:18;3.78;;;1.50;;
56455;SDS011;42354;53.218;6.564;2023-07-29T10:02:44;3.22;;;1.10;;
56455;SDS011;42354;53.218;6.564;2023-07-29T10:05:13;4.60;;;1.30;;
56455;SDS011;42354;53.218;6.564;2023-07-29T10:07:39;3.33;;;1.25;;
56455;SDS011;42354;53.218;6.564;2023-07-29T10:10:05;6.55;;;1.20;;
56455;SDS011;42354;53.218;6.564;2023-07-29T10:12:32;6.25;;;1.38;;
56455;SDS011;42354;53.218;6.564;2023-07-29T10:15:05;5.13;;;1.08;;
56455;SDS011;42354;53.218;6.564;2023-07-29T10:20:04;4.18;;;1.55;;
56455;SDS011;42354;53.218;6.564;2023-07-29T10:22:39;5.35;;;1.20;;
56455;SDS011;42354;53.218;6.564;2023-07-29T10:25:16;3.58;;;1.05;;
56455;SDS011;42354;53.218;6.564;2023-07-29T10:27:47;4.03;;;1.30;;
56455;SDS011;42354;53.218;6.564;2023-07-29T10:30:20;5.93;;;1.08;;
56455;SDS011;42354;53.218;6.564;2023-07-29T10:32:46;3.75;;;1.40;;
56455;SDS011;42354;53.218;6.564;2023-07-29T10:35:14;3.33;;;1.30;;
56455;SDS011;42354;53.218;6.564;2023-07-29T10:37:41;3.22;;;1.17;;
56455;SDS011;42354;53.218;6.564;2023-07-29T10:40:10;3.65;;;1.25;;
56455;SDS011;42354;53.218;6.564;2023-07-29T10:42:37;4.28;;;1.05;;
56455;SDS011;42354;53.218;6.564;2023-07-29T10:45:16;2.85;;;1.10;;
56455;SDS011;42354;53.218;6.564;2023-07-29T10:47:43;5.13;;;1.23;;
56455;SDS011;42354;53.218;6.564;2023-07-29T10:50:16;1.50;;;0.80;;
56455;SDS011;42354;53.218;6.564;2023-07-29T10:52:50;5.43;;;1.42;;
56455;SDS011;42354;53.218;6.564;2023-07-29T10:55:26;3.55;;;1.20;;
56455;SDS011;42354;53.218;6.564;2023-07-29T10:58:14;3.55;;;1.45;;
56455;SDS011;42354;53.218;6.564;2023-07-29T11:00:44;4.90;;;1.10;;
56455;SDS011;42354;53.218;6.564;2023-07-29T11:03:11;3.58;;;1.20;;
56455;SDS011;42354;53.218;6.564;2023-07-29T11:08:17;2.13;;;1.20;;
56455;SDS011;42354;53.218;6.564;2023-07-29T11:10:44;5.35;;;1.52;;
56455;SDS011;42354;53.218;6.564;2023-07-29T11:13:25;3.67;;;1.50;;
56455;SDS011;42354;53.218;6.564;2023-07-29T11:15:52;6.03;;;1.60;;
56455;SDS011;42354;53.218;6.564;2023-07-29T11:18:19;3.05;;;1.50;;
56455;SDS011;42354;53.218;6.564;2023-07-29T11:20:46;3.97;;;1.23;;
56455;SDS011;42354;53.218;6.564;2023-07-29T11:23:12;3.25;;;1.45;;
56455;SDS011;42354;53.218;6.564;2023-07-29T11:25:39;4.68;;;1.35;;
56455;SDS011;42354;53.218;6.564;2023-07-29T11:28:05;2.50;;;1.30;;
56455;SDS011;42354;53.218;6.564;2023-07-29T11:30:30;2.60;;;1.27;;
56455;SDS011;42354;53.218;6.564;2023-07-29T11:32:58;5.93;;;1.48;;
56455;SDS011;42354;53.218;6.564;2023-07-29T11:35:25;3.97;;;1.30;;
56455;SDS011;42354;53.218;6.564;2023-07-29T11:37:53;4.32;;;1.20;;
56455;SDS011;42354;53.218;6.564;2023-07-29T11:40:22;6.15;;;1.30;;
56455;SDS011;42354;53.218;6.564;2023-07-29T11:42:49;5.10;;;1.60;;
56455;SDS011;42354;53.218;6.564;2023-07-29T11:45:16;5.18;;;1.75;;
56455;SDS011;42354;53.218;6.564;2023-07-29T11:47:43;4.22;;;1.65;;
56455;SDS011;42354;53.218;6.564;2023-07-29T11:50:09;4.38;;;1.25;;
56455;SDS011;42354;53.218;6.564;2023-07-29T11:52:39;5.35;;;1.83;;
56455;SDS011;42354;53.218;6.564;2023-07-29T11:55:06;4.32;;;1.40;;
56455;SDS011;42354;53.218;6.564;2023-07-29T11:57:35;7.30;;;2.13;;
56455;SDS011;42354;53.218;6.564;2023-07-29T12:00:05;5.05;;;1.67;;
56455;SDS011;42354;53.218;6.564;2023-07-29T12:02:33;7.00;;;1.60;;
56455;SDS011;42354;53.218;6.564;2023-07-29T12:05:01;4.38;;;1.75;;
56455;SDS011;42354;53.218;6.564;2023-07-29T12:07:28;4.38;;;1.67;;
56455;SDS011;42354;53.218;6.564;2023-07-29T12:09:55;5.40;;;1.95;;
56455;SDS011;42354;53.218;6.564;2023-07-29T12:12:21;6.68;;;2.50;;
56455;SDS011;42354;53.218;6.564;2023-07-29T12:14:48;5.28;;;2.55;;
56455;SDS011;42354;53.218;6.564;2023-07-29T12:17:14;5.93;;;2.50;;
56455;SDS011;42354;53.218;6.564;2023-07-29T12:19:40;6.18;;;1.88;;
56455;SDS011;42354;53.218;6.564;2023-07-29T12:22:07;7.57;;;3.10;;
56455;SDS011;42354;53.218;6.564;2023-07-29T12:24:36;7.63;;;1.88;;
56455;SDS011;42354;53.218;6.564;2023-07-29T12:27:03;5.50;;;1.90;;
56455;SDS011;42354;53.218;6.564;2023-07-29T12:29:29;5.22;;;2.08;;
56455;SDS011;42354;53.218;6.564;2023-07-29T12:31:59;6.32;;;2.30;;
56455;SDS011;42354;53.218;6.564;2023-07-29T12:34:29;6.00;;;2.05;;
56455;SDS011;42354;53.218;6.564;2023-07-29T12:36:56;4.43;;;1.80;;
56455;SDS011;42354;53.218;6.564;2023-07-29T12:41:50;6.40;;;1.92;;
56455;SDS011;42354;53.218;6.564;2023-07-29T12:44:17;9.30;;;2.75;;
56455;SDS011;42354;53.218;6.564;2023-07-29T12:46:44;3.97;;;1.92;;
56455;SDS011;42354;53.218;6.564;2023-07-29T12:49:10;6.28;;;2.05;;
56455;SDS011;42354;53.218;6.564;2023-07-29T12:51:35;6.63;;;2.25;;
56455;SDS011;42354;53.218;6.564;2023-07-29T12:54:02;6.55;;;2.00;;
56455;SDS011;42354;53.218;6.564;2023-07-29T12:56:29;4.70;;;1.90;;
56455;SDS011;42354;53.218;6.564;2023-07-29T12:58:58;5.85;;;2.38;;
56455;SDS011;42354;53.218;6.564;2023-07-29T13:01:24;5.00;;;2.10;;
56455;SDS011;42354;53.218;6.564;2023-07-29T13:03:50;3.83;;;1.98;;
56455;SDS011;42354;53.218;6.564;2023-07-29T13:06:16;4.65;;;1.90;;
56455;SDS011;42354;53.218;6.564;2023-07-29T13:08:42;4.60;;;1.80;;
56455;SDS011;42354;53.218;6.564;2023-07-29T13:11:08;5.78;;;1.90;;
56455;SDS011;42354;53.218;6.564;2023-07-29T13:13:33;5.82;;;1.40;;
56455;SDS011;42354;53.218;6.564;2023-07-29T13:15:59;3.88;;;2.00;;
56455;SDS011;42354;53.218;6.564;2023-07-29T13:18:25;5.85;;;1.58;;
56455;SDS011;42354;53.218;6.564;2023-07-29T13:20:50;4.78;;;2.28;;
56455;SDS011;42354;53.218;6.564;2023-07-29T13:23:16;4.28;;;1.48;;
56455;SDS011;42354;53.218;6.564;2023-07-29T13:25:41;3.25;;;1.70;;
56455;SDS011;42354;53.218;6.564;2023-07-29T13:28:10;3.47;;;1.33;;
56455;SDS011;42354;53.218;6.564;2023-07-29T13:30:38;4.80;;;1.27;;
56455;SDS011;42354;53.218;6.564;2023-07-29T13:33:04;8.05;;;2.00;;
56455;SDS011;42354;53.218;6.564;2023-07-29T13:35:30;7.38;;;2.15;;
56455;SDS011;42354;53.218;6.564;2023-07-29T13:37:55;4.85;;;1.70;;
56455;SDS011;42354;53.218;6.564;2023-07-29T13:40:21;7.82;;;1.95;;
56455;SDS011;42354;53.218;6.564;2023-07-29T13:42:46;4.65;;;1.40;;
56455;SDS011;42354;53.218;6.564;2023-07-29T13:45:12;4.55;;;1.50;;
56455;SDS011;42354;53.218;6.564;2023-07-29T13:47:37;6.95;;;2.20;;
56455;SDS011;42354;53.218;6.564;2023-07-29T13:50:03;5.55;;;1.70;;
56455;SDS011;42354;53.218;6.564;2023-07-29T13:52:29;6.95;;;1.70;;
56455;SDS011;42354;53.218;6.564;2023-07-29T13:54:54;8.35;;;2.17;;
56455;SDS011;42354;53.218;6.564;2023-07-29T13:57:21;4.82;;;2.33;;
56455;SDS011;42354;53.218;6.564;2023-07-29T13:59:46;5.03;;;2.03;;
56455;SDS011;42354;53.218;6.564;2023-07-29T14:02:12;7.30;;;1.73;;
56455;SDS011;42354;53.218;6.564;2023-07-29T14:04:38;5.93;;;1.92;;
56455;SDS011;42354;53.218;6.564;2023-07-29T14:07:03;4.45;;;1.80;;
56455;SDS011;42354;53.218;6.564;2023-07-29T14:09:29;5.72;;;1.70;;
56455;SDS011;42354;53.218;6.564;2023-07-29T14:11:55;5.18;;;1.70;;
56455;SDS011;42354;53.218;6.564;2023-07-29T14:14:20;5.65;;;1.85;;
56455;SDS011;42354;53.218;6.564;2023-07-29T14:16:45;3.88;;;1.70;;
56455;SDS011;42354;53.218;6.564;2023-07-29T14:19:12;4.88;;;1.63;;
56455;SDS011;42354;53.218;6.564;2023-07-29T14:21:37;6.18;;;1.40;;
56455;SDS011;42354;53.218;6.564;2023-07-29T14:24:03;7.93;;;2.53;;
56455;SDS011;42354;53.218;6.564;2023-07-29T14:26:28;3.97;;;1.70;;
56455;SDS011;42354;53.218;6.564;2023-07-29T14:28:54;4.07;;;1.60;;
56455;SDS011;42354;53.218;6.564;2023-07-29T14:31:19;6.15;;;2.03;;
56455;SDS011;42354;53.218;6.564;2023-07-29T14:33:45;6.65;;;2.15;;
56455;SDS011;42354;53.218;6.564;2023-07-29T14:36:10;4.97;;;1.90;;
56455;SDS011;42354;53.218;6.564;2023-07-29T14:38:36;7.43;;;1.80;;
56455;SDS011;42354;53.218;6.564;2023-07-29T14:41:03;5.85;;;1.92;;
56455;SDS011;42354;53.218;6.564;2023-07-29T14:43:30;7.95;;;2.05;;
56455;SDS011;42354;53.218;6.564;2023-07-29T14:45:55;6.40;;;1.75;;
56455;SDS011;42354;53.218;6.564;2023-07-29T14:48:21;4.65;;;1.75;;
56455;SDS011;42354;53.218;6.564;2023-07-29T14:50:47;5.00;;;2.08;;
56455;SDS011;42354;53.218;6.564;2023-07-29T14:53:13;6.22;;;1.80;;
56455;SDS011;42354;53.218;6.564;2023-07-29T14:55:38;5.97;;;2.00;;
56455;SDS011;42354;53.218;6.564;2023-07-29T14:58:04;3.45;;;1.65;;